首页
METAR-TAF:

METAR-TAF

机场 :

布列斯特機場

布列斯特, 白俄罗斯

纬度: 52-06-30N, 经度: 023-53-48E, 海拔: 143米

当前天气观测

该预报发布于12小时和54分钟前的13:30 UTC
风速8节,风向东转东南
温度 7°C
湿度 100%
气压 1024 hPa
能見度: 0200

METAR: UMBB 191330Z 11004MPS 0200 R29/0225 FG VV/// 07/07 Q1024 R29/CLRD// NOSIG

时间: 05:24 (02:24 UTC)

预报

该预报发布于12小时和19分钟前的14:05 UTC
预报有效从19日的 15点(UTC)到 19日的 24点(UTC)
风速10节,风向南转南东
能見度: 0500
层高于200英尺
短暂存在
从 19日的 18点(UTC)到 19日的 24点(UTC)
能見度: 3000
多云层高于700英尺
轻雾

TAF: UMBB 191405Z 1915/1924 15005MPS 0500 FG VV002 TEMPO 1918/1924 3000 BR BKN007

超过4000个机场的气象观测和天气预报(METAR&TAF报告)。

可查询的气象台以黄色和红色小点在地图上表示。

将鼠标移到小点上方,可查看气象台名称。

然后点击查看天气观测和预报。

如需切换地图:点击带黑十字的绿色按钮放大地图;点击带横线的绿色按钮缩小地图;或者点击绿色箭头查看邻近地区的地图。


METAR-TAF: